createdAt,value
2023-03-26T00:01:37.641Z,53.99
2023-03-26T00:04:07.607Z,53.86
2023-03-26T00:06:39.933Z,53.76
2023-03-26T00:09:13.572Z,53.55
2023-03-26T00:11:40.773Z,53.88
2023-03-26T00:14:09.612Z,53.59
2023-03-26T00:16:36.645Z,53.72
2023-03-26T00:19:04.295Z,53.71
2023-03-26T00:21:31.888Z,53.59
2023-03-26T00:24:07.371Z,53.68
2023-03-26T00:26:38.125Z,53.42
2023-03-26T00:29:08.370Z,53.57
2023-03-26T00:31:37.977Z,53.93
2023-03-26T00:34:06.863Z,53.84
2023-03-26T00:36:36.069Z,53.81
2023-03-26T00:39:06.364Z,54.51
2023-03-26T00:41:37.281Z,54.72
2023-03-26T00:44:04.852Z,54.27
2023-03-26T00:46:32.401Z,53.91
2023-03-26T00:49:00.682Z,54.28
2023-03-26T00:51:28.850Z,54.16
2023-03-26T00:53:58.013Z,54.24
2023-03-26T00:56:25.711Z,53.86
2023-03-26T00:58:52.980Z,54.05
2023-03-26T01:01:27.937Z,54.04
2023-03-26T01:04:31.876Z,54.30
2023-03-26T01:07:13.792Z,54.37
2023-03-26T01:09:50.295Z,54.64
2023-03-26T01:12:24.128Z,54.32
2023-03-26T01:14:55.016Z,54.20
2023-03-26T01:17:24.345Z,54.47
2023-03-26T01:20:12.920Z,54.53
2023-03-26T01:22:53.306Z,54.17
2023-03-26T01:25:25.472Z,54.90
2023-03-26T01:27:56.629Z,54.33
2023-03-26T01:30:33.738Z,54.66
2023-03-26T01:34:24.842Z,54.43
2023-03-26T01:37:17.703Z,54.28
2023-03-26T01:40:08.887Z,54.55
2023-03-26T01:47:31.539Z,54.75
2023-03-26T01:50:39.228Z,54.60
2023-03-26T02:05:24.265Z,55.65
2023-03-26T02:08:11.987Z,55.87
2023-03-26T02:10:49.662Z,55.73
2023-03-26T02:13:17.186Z,56.13
2023-03-26T02:16:06.945Z,56.48
2023-03-26T02:18:41.922Z,56.43
2023-03-26T02:21:20.262Z,56.64
2023-03-26T02:23:57.879Z,56.43
2023-03-26T02:26:25.629Z,56.88
2023-03-26T02:28:52.871Z,56.56
2023-03-26T02:31:20.110Z,56.99
2023-03-26T02:33:49.609Z,56.23
2023-03-26T02:36:19.627Z,56.70
2023-03-26T02:38:46.976Z,56.38
2023-03-26T02:41:13.952Z,56.37
2023-03-26T02:43:41.075Z,56.14
2023-03-26T02:46:08.073Z,56.63
2023-03-26T02:48:35.430Z,56.27
2023-03-26T02:51:04.498Z,56.72
2023-03-26T02:53:31.718Z,56.89
2023-03-26T02:56:00.386Z,57.04
2023-03-26T02:58:30.153Z,56.66
2023-03-26T03:00:57.293Z,56.91
2023-03-26T03:03:27.397Z,57.15
2023-03-26T03:05:56.246Z,57.20
2023-03-26T03:08:28.194Z,57.39
2023-03-26T03:11:01.850Z,57.40
2023-03-26T03:13:29.618Z,57.93
2023-03-26T03:15:57.074Z,57.79
2023-03-26T03:18:24.586Z,58.48
2023-03-26T03:20:51.929Z,58.72
2023-03-26T03:23:19.128Z,58.81
2023-03-26T03:25:46.082Z,59.12
2023-03-26T03:28:13.968Z,59.00
2023-03-26T03:30:41.890Z,58.90
2023-03-26T03:33:09.156Z,58.47
2023-03-26T03:35:37.808Z,59.02
2023-03-26T03:38:05.002Z,59.10
2023-03-26T03:40:32.182Z,58.75
2023-03-26T03:42:59.415Z,59.02
2023-03-26T03:45:26.466Z,58.62
2023-03-26T03:47:54.078Z,58.67
2023-03-26T03:50:21.127Z,59.25
2023-03-26T03:52:48.285Z,58.93
2023-03-26T03:55:15.306Z,58.77
2023-03-26T03:57:42.485Z,59.05
2023-03-26T04:00:11.794Z,58.88
2023-03-26T04:02:43.023Z,58.73
2023-03-26T04:05:11.712Z,58.61
2023-03-26T04:07:39.572Z,58.79
2023-03-26T04:10:09.686Z,58.36
2023-03-26T04:12:36.993Z,58.54
2023-03-26T04:15:04.777Z,58.58
2023-03-26T04:17:32.010Z,58.26
2023-03-26T04:20:07.054Z,57.95
2023-03-26T04:22:34.458Z,57.73
2023-03-26T04:25:02.721Z,58.06
2023-03-26T04:27:35.399Z,57.67
2023-03-26T04:30:05.568Z,57.16
2023-03-26T04:32:34.357Z,57.59
2023-03-26T04:35:04.198Z,57.37
2023-03-26T04:37:39.858Z,57.16
2023-03-26T04:40:25.019Z,57.33
2023-03-26T04:42:54.699Z,57.58
2023-03-26T04:45:22.898Z,57.49
2023-03-26T04:47:50.887Z,57.55
2023-03-26T04:50:17.944Z,57.20
2023-03-26T04:52:45.687Z,57.39
2023-03-26T04:55:48.909Z,58.09
2023-03-26T04:58:16.868Z,58.07
2023-03-26T05:00:43.842Z,58.38
2023-03-26T05:03:11.860Z,58.53
2023-03-26T05:05:40.025Z,58.05
2023-03-26T05:08:07.346Z,58.50
2023-03-26T05:10:34.421Z,59.05
2023-03-26T05:13:01.578Z,59.23
2023-03-26T05:15:28.448Z,58.44
2023-03-26T05:17:56.130Z,58.98
2023-03-26T05:20:28.260Z,58.79
2023-03-26T05:22:56.385Z,58.93
2023-03-26T05:25:23.517Z,58.81
2023-03-26T05:27:50.923Z,58.75
2023-03-26T05:30:20.810Z,58.80
2023-03-26T05:32:49.595Z,58.88
2023-03-26T05:35:18.058Z,59.07
2023-03-26T05:37:47.069Z,58.72
2023-03-26T05:40:15.454Z,58.61
2023-03-26T05:42:43.599Z,58.96
2023-03-26T05:45:13.582Z,58.57
2023-03-26T05:47:41.259Z,58.97
2023-03-26T05:50:10.344Z,58.82
2023-03-26T05:52:37.938Z,58.54
2023-03-26T05:55:05.552Z,58.37
2023-03-26T05:57:33.245Z,58.83
2023-03-26T06:00:00.387Z,58.85
2023-03-26T06:02:29.469Z,58.43
2023-03-26T06:04:56.930Z,58.76
2023-03-26T06:07:24.174Z,58.93
2023-03-26T06:09:51.105Z,58.50
2023-03-26T06:12:18.321Z,59.05
2023-03-26T06:14:46.150Z,58.85
2023-03-26T06:17:13.846Z,59.04
2023-03-26T06:19:40.892Z,58.28
2023-03-26T06:22:08.104Z,58.28
2023-03-26T06:24:35.603Z,58.16
2023-03-26T06:27:02.996Z,58.09
2023-03-26T06:29:29.942Z,57.92
2023-03-26T06:32:03.451Z,58.20
2023-03-26T06:34:36.313Z,58.00
2023-03-26T06:37:06.312Z,57.82
2023-03-26T06:39:33.363Z,57.74
2023-03-26T06:42:00.749Z,57.40
2023-03-26T06:44:28.127Z,57.58
2023-03-26T06:46:55.546Z,56.97
2023-03-26T06:49:22.458Z,56.86
2023-03-26T06:51:49.851Z,56.65
2023-03-26T06:54:17.950Z,56.73
2023-03-26T06:56:45.282Z,56.68
2023-03-26T06:59:12.210Z,56.21
2023-03-26T07:01:39.464Z,56.48
2023-03-26T07:04:06.543Z,55.79
2023-03-26T07:06:33.767Z,55.91
2023-03-26T07:09:00.784Z,55.54
2023-03-26T07:11:28.905Z,56.17
2023-03-26T07:13:56.624Z,55.82
2023-03-26T07:16:23.945Z,56.03
2023-03-26T07:18:51.402Z,55.49
2023-03-26T07:21:19.895Z,55.62
2023-03-26T07:23:48.230Z,55.87
2023-03-26T07:26:49.125Z,55.61
2023-03-26T07:29:27.946Z,55.35
2023-03-26T07:32:18.583Z,55.40
2023-03-26T07:34:56.136Z,55.25
2023-03-26T07:37:28.938Z,55.48
2023-03-26T07:40:08.809Z,55.59
2023-03-26T07:42:53.953Z,55.57
2023-03-26T07:45:42.681Z,55.64
2023-03-26T07:48:25.419Z,54.96
2023-03-26T07:50:54.635Z,54.71
2023-03-26T07:53:22.748Z,54.74
2023-03-26T07:55:57.613Z,54.12
2023-03-26T07:58:36.464Z,54.48
2023-03-26T08:01:37.774Z,54.07
2023-03-26T08:04:33.251Z,53.41
2023-03-26T08:07:08.370Z,53.29
2023-03-26T08:10:03.724Z,53.33
2023-03-26T08:12:40.836Z,53.40
2023-03-26T08:15:39.859Z,53.43
2023-03-26T08:18:39.206Z,52.55
2023-03-26T08:21:17.217Z,52.46
2023-03-26T08:24:11.013Z,51.88
2023-03-26T08:27:18.782Z,51.87
2023-03-26T08:30:21.632Z,51.12
2023-03-26T08:33:11.528Z,50.73
2023-03-26T08:35:42.471Z,49.97
2023-03-26T08:38:16.433Z,50.06
2023-03-26T08:41:35.398Z,49.73
2023-03-26T08:44:47.693Z,48.85
2023-03-26T08:47:39.546Z,48.35
2023-03-26T08:50:31.139Z,48.47
2023-03-26T08:53:15.465Z,47.30
2023-03-26T08:56:00.281Z,47.28
2023-03-26T08:58:48.582Z,47.00
2023-03-26T09:01:55.066Z,46.78
2023-03-26T09:04:48.727Z,46.63
2023-03-26T09:08:10.604Z,46.15
2023-03-26T09:11:02.839Z,46.02
2023-03-26T09:13:44.745Z,45.66
2023-03-26T09:16:38.791Z,45.68
2023-03-26T09:19:40.500Z,45.05
2023-03-26T09:22:41.214Z,44.31
2023-03-26T09:25:56.465Z,44.36
2023-03-26T09:29:08.594Z,44.17
2023-03-26T09:31:58.104Z,44.43
2023-03-26T09:35:03.506Z,44.48
2023-03-26T09:37:59.309Z,43.84
2023-03-26T09:40:47.928Z,43.91
2023-03-26T09:43:52.168Z,43.42
2023-03-26T09:46:46.909Z,43.31
2023-03-26T09:49:42.123Z,43.23
2023-03-26T09:52:18.424Z,43.17
2023-03-26T09:55:49.916Z,42.98
2023-03-26T09:59:11.569Z,43.02
2023-03-26T10:02:18.882Z,42.67
2023-03-26T10:05:31.387Z,41.74
2023-03-26T10:08:33.334Z,41.89
2023-03-26T10:11:16.299Z,41.80
2023-03-26T10:14:18.872Z,41.38
2023-03-26T10:17:07.286Z,41.25
2023-03-26T10:20:04.768Z,41.58
2023-03-26T10:22:45.955Z,41.10
2023-03-26T10:25:54.426Z,42.08
2023-03-26T10:28:41.302Z,41.42
2023-03-26T10:31:35.752Z,41.52
2023-03-26T10:34:30.365Z,41.77
2023-03-26T10:37:12.344Z,41.47
2023-03-26T10:40:22.502Z,41.96
2023-03-26T10:43:25.725Z,41.97
2023-03-26T10:46:29.276Z,42.04
2023-03-26T10:49:16.579Z,42.34
2023-03-26T10:51:59.713Z,42.33
2023-03-26T10:54:55.784Z,42.29
2023-03-26T10:57:39.508Z,42.56
2023-03-26T11:00:26.195Z,41.97
2023-03-26T11:03:43.825Z,42.26
2023-03-26T11:06:50.421Z,41.96
2023-03-26T11:09:42.081Z,41.61
2023-03-26T11:12:30.362Z,41.61
2023-03-26T11:15:33.073Z,40.70
2023-03-26T11:18:20.313Z,41.43
2023-03-26T11:21:20.685Z,40.63
2023-03-26T11:24:44.974Z,40.15
2023-03-26T11:27:50.721Z,39.80
2023-03-26T11:30:42.530Z,39.65
2023-03-26T11:33:37.617Z,40.06
2023-03-26T11:36:19.525Z,40.32
2023-03-26T11:38:50.740Z,40.24
2023-03-26T11:41:26.241Z,39.56
2023-03-26T11:44:07.226Z,39.44
2023-03-26T11:46:42.621Z,39.33
2023-03-26T11:49:14.708Z,39.12
2023-03-26T11:51:47.405Z,39.45
2023-03-26T11:54:16.454Z,39.34
2023-03-26T11:57:26.753Z,39.74
2023-03-26T12:00:18.211Z,39.67
2023-03-26T12:02:47.707Z,39.50
2023-03-26T12:05:26.489Z,39.51
2023-03-26T12:07:59.315Z,40.16
2023-03-26T12:10:42.942Z,38.44
2023-03-26T12:13:28.236Z,38.59
2023-03-26T12:16:20.763Z,38.68
2023-03-26T12:19:05.500Z,38.69
2023-03-26T12:21:51.595Z,38.78
2023-03-26T12:24:44.945Z,39.41
2023-03-26T12:27:28.355Z,39.81
2023-03-26T12:30:23.911Z,40.22
2023-03-26T12:32:55.951Z,39.71
2023-03-26T12:35:30.241Z,40.45
2023-03-26T12:38:24.579Z,40.50
2023-03-26T12:44:42.331Z,40.30
2023-03-26T12:44:59.352Z,39.82
2023-03-26T12:48:01.815Z,39.78
2023-03-26T12:50:34.027Z,39.55
2023-03-26T12:53:38.537Z,39.85
2023-03-26T12:56:38.654Z,39.29
2023-03-26T12:59:44.616Z,38.61
2023-03-26T13:02:59.100Z,37.92
2023-03-26T13:06:23.735Z,38.09
2023-03-26T13:09:27.778Z,37.95
2023-03-26T13:12:41.800Z,38.64
2023-03-26T13:15:31.264Z,37.58
2023-03-26T13:18:27.388Z,38.14
2023-03-26T13:21:09.665Z,38.82
2023-03-26T13:24:00.879Z,38.85
2023-03-26T13:27:27.049Z,39.48
2023-03-26T13:30:22.300Z,39.81
2023-03-26T13:33:35.922Z,40.34
2023-03-26T13:36:23.380Z,43.53
2023-03-26T13:39:26.245Z,44.58
2023-03-26T13:42:15.944Z,46.66
2023-03-26T13:45:07.439Z,47.64
2023-03-26T13:47:41.117Z,49.79
2023-03-26T13:50:28.690Z,50.70
2023-03-26T13:52:58.980Z,52.19
2023-03-26T13:55:38.556Z,52.50
2023-03-26T13:58:22.047Z,52.91
2023-03-26T14:00:58.501Z,55.29
2023-03-26T14:04:03.920Z,56.36
2023-03-26T14:06:54.225Z,58.13
2023-03-26T14:10:01.948Z,58.68
2023-03-26T14:12:52.473Z,60.01
2023-03-26T14:15:28.535Z,60.34
2023-03-26T14:18:25.917Z,60.92
2023-03-26T14:21:54.645Z,61.58
2023-03-26T14:24:49.686Z,61.33
2023-03-26T14:27:44.411Z,62.73
2023-03-26T14:30:17.910Z,61.93
2023-03-26T14:33:27.848Z,62.45
2023-03-26T14:36:05.671Z,64.13
2023-03-26T14:39:13.867Z,63.00
2023-03-26T14:42:32.408Z,63.19
2023-03-26T14:45:49.552Z,63.66
2023-03-26T14:48:55.921Z,63.75
2023-03-26T14:51:53.495Z,63.98
2023-03-26T14:54:27.300Z,64.01
2023-03-26T14:57:18.904Z,63.33
2023-03-26T14:59:58.391Z,65.10
2023-03-26T15:03:24.676Z,64.68
2023-03-26T15:06:15.430Z,64.16
2023-03-26T15:09:22.867Z,65.79
2023-03-26T15:12:22.093Z,64.82
2023-03-26T15:15:39.044Z,64.63
2023-03-26T15:18:49.615Z,64.06
2023-03-26T15:22:26.633Z,64.42
2023-03-26T15:25:16.821Z,64.51
2023-03-26T15:28:20.568Z,64.85
2023-03-26T15:31:18.998Z,64.73
2023-03-26T15:34:20.172Z,63.41
2023-03-26T15:37:30.669Z,63.50
2023-03-26T15:40:16.547Z,63.22
2023-03-26T15:43:12.207Z,64.88
2023-03-26T15:46:25.284Z,64.37
2023-03-26T15:49:19.731Z,65.17
2023-03-26T15:52:13.069Z,64.31
2023-03-26T15:55:18.140Z,64.65
2023-03-26T15:58:28.129Z,64.53
2023-03-26T16:01:21.183Z,65.44
2023-03-26T16:04:10.701Z,66.03
2023-03-26T16:07:03.778Z,65.76
2023-03-26T16:09:48.053Z,65.87
2023-03-26T16:12:57.558Z,65.04
2023-03-26T16:15:29.978Z,65.28
2023-03-26T16:18:10.392Z,65.90
2023-03-26T16:20:50.697Z,65.93
2023-03-26T16:23:47.581Z,65.63
2023-03-26T16:26:44.108Z,65.46
2023-03-26T16:29:14.403Z,64.86
2023-03-26T16:32:35.493Z,65.79
2023-03-26T16:35:55.280Z,65.56
2023-03-26T16:38:25.033Z,65.64
2023-03-26T16:41:03.629Z,65.73
2023-03-26T16:43:46.840Z,65.66
2023-03-26T16:46:53.354Z,65.72
2023-03-26T16:50:08.967Z,64.94
2023-03-26T16:53:02.762Z,65.35
2023-03-26T16:55:43.881Z,66.46
2023-03-26T16:58:10.934Z,66.91
2023-03-26T17:00:59.890Z,66.59
2023-03-26T17:04:02.724Z,67.36
2023-03-26T17:06:56.789Z,67.00
2023-03-26T17:10:09.771Z,67.27
2023-03-26T17:12:45.313Z,67.24
2023-03-26T17:16:04.245Z,67.37
2023-03-26T17:19:24.598Z,67.76
2023-03-26T17:22:37.517Z,66.99
2023-03-26T17:25:32.013Z,68.41
2023-03-26T17:28:24.208Z,69.04
2023-03-26T17:31:15.882Z,68.81
2023-03-26T17:33:43.652Z,69.10
2023-03-26T17:36:16.517Z,69.28
2023-03-26T17:38:47.152Z,69.55
2023-03-26T17:42:01.326Z,69.29
2023-03-26T17:44:57.758Z,69.75
2023-03-26T17:47:38.315Z,69.90
2023-03-26T17:50:17.960Z,70.53
2023-03-26T17:53:01.708Z,70.05
2023-03-26T17:55:40.651Z,70.19
2023-03-26T17:58:29.755Z,70.17
2023-03-26T18:01:06.411Z,70.96
2023-03-26T18:03:44.887Z,71.75
2023-03-26T18:06:57.058Z,71.31
2023-03-26T18:09:57.108Z,70.55
2023-03-26T18:12:33.533Z,71.34
2023-03-26T18:15:28.985Z,71.78
2023-03-26T18:18:19.779Z,71.76
2023-03-26T18:20:49.356Z,70.85
2023-03-26T18:23:39.079Z,71.55
2023-03-26T18:26:32.469Z,71.01
2023-03-26T18:29:29.509Z,70.77
2023-03-26T18:32:09.368Z,70.67
2023-03-26T18:34:52.688Z,70.35
2023-03-26T18:37:27.970Z,70.48
2023-03-26T18:40:16.261Z,71.05
2023-03-26T18:42:48.664Z,70.66
2023-03-26T18:45:38.692Z,71.05
2023-03-26T18:48:17.795Z,70.43
2023-03-26T18:50:47.538Z,70.71
2023-03-26T18:53:20.810Z,70.11
2023-03-26T18:55:50.692Z,69.94
2023-03-26T18:58:34.409Z,69.49
2023-03-26T19:01:20.125Z,70.19
2023-03-26T19:03:51.774Z,69.21
2023-03-26T19:06:21.296Z,70.03
2023-03-26T19:08:49.601Z,69.80
2023-03-26T19:11:18.074Z,70.45
2023-03-26T19:14:00.002Z,70.67
2023-03-26T19:16:34.027Z,70.42
2023-03-26T19:19:06.928Z,70.42
2023-03-26T19:21:36.591Z,70.28
2023-03-26T19:24:05.574Z,69.55
2023-03-26T19:26:33.420Z,69.51
2023-03-26T19:29:00.992Z,70.01
2023-03-26T19:31:34.495Z,70.48
2023-03-26T19:34:15.687Z,70.62
2023-03-26T19:37:21.994Z,71.07
2023-03-26T19:39:55.442Z,70.97
2023-03-26T19:42:43.725Z,70.98
2023-03-26T19:45:23.596Z,71.06
2023-03-26T19:48:03.661Z,71.64
2023-03-26T19:50:42.255Z,71.39
2023-03-26T19:53:18.968Z,71.32
2023-03-26T19:56:14.639Z,71.02
2023-03-26T19:58:43.043Z,70.78
2023-03-26T20:01:21.093Z,70.73
2023-03-26T20:03:58.043Z,70.82
2023-03-26T20:06:42.514Z,70.99
2023-03-26T20:09:13.636Z,70.91
2023-03-26T20:11:41.231Z,70.96
2023-03-26T20:14:18.236Z,71.04
2023-03-26T20:16:46.001Z,71.02
2023-03-26T20:19:15.256Z,71.14
2023-03-26T20:21:44.361Z,71.57
2023-03-26T20:24:17.914Z,71.57
2023-03-26T20:26:46.410Z,71.50
2023-03-26T20:29:15.048Z,71.55
2023-03-26T20:31:43.266Z,71.67
2023-03-26T20:34:26.201Z,72.30
2023-03-26T20:36:57.155Z,72.34
2023-03-26T20:39:28.705Z,72.45
2023-03-26T20:41:56.532Z,71.57
2023-03-26T20:44:26.794Z,72.22
2023-03-26T20:46:56.507Z,72.46
2023-03-26T20:49:25.186Z,72.87
2023-03-26T20:51:52.070Z,72.67
2023-03-26T20:54:23.555Z,71.85
2023-03-26T20:56:52.517Z,72.20
2023-03-26T20:59:26.578Z,72.01
2023-03-26T21:01:56.865Z,72.50
2023-03-26T21:04:24.989Z,72.12
2023-03-26T21:06:57.588Z,71.85
2023-03-26T21:09:34.193Z,72.56
2023-03-26T21:12:15.315Z,72.74
2023-03-26T21:14:44.213Z,73.11
2023-03-26T21:17:19.128Z,73.30
2023-03-26T21:19:47.319Z,73.59
2023-03-26T21:22:22.673Z,72.59
2023-03-26T21:25:17.368Z,72.25
2023-03-26T21:27:54.849Z,72.22
2023-03-26T21:30:22.396Z,72.61
2023-03-26T21:32:50.372Z,72.38
2023-03-26T21:35:19.091Z,71.73
2023-03-26T21:37:50.805Z,71.11
2023-03-26T21:40:19.488Z,71.14
2023-03-26T21:42:50.206Z,71.43
2023-03-26T21:45:19.082Z,71.13
2023-03-26T21:47:46.654Z,71.06
2023-03-26T21:50:22.227Z,71.30
2023-03-26T21:52:51.795Z,71.66
2023-03-26T21:55:23.632Z,70.56
2023-03-26T21:58:13.412Z,70.97
2023-03-26T22:01:02.734Z,71.40
2023-03-26T22:03:55.475Z,72.16
2023-03-26T22:06:46.032Z,72.95
2023-03-26T22:09:15.084Z,72.26
2023-03-26T22:11:44.225Z,71.52
2023-03-26T22:14:13.349Z,72.40
2023-03-26T22:16:41.711Z,73.12
2023-03-26T22:19:09.015Z,73.02
2023-03-26T22:21:36.363Z,73.18
2023-03-26T22:24:07.107Z,73.45
2023-03-26T22:26:36.426Z,73.95
2023-03-26T22:29:05.190Z,74.08
2023-03-26T22:31:32.476Z,73.87
2023-03-26T22:33:59.452Z,75.04
2023-03-26T22:36:27.467Z,74.41
2023-03-26T22:38:55.344Z,74.57
2023-03-26T22:41:23.459Z,74.77
2023-03-26T22:43:53.628Z,75.45
2023-03-26T22:46:22.780Z,75.84
2023-03-26T22:48:50.862Z,76.76
2023-03-26T22:51:18.621Z,76.62
2023-03-26T22:53:45.979Z,76.50
2023-03-26T22:56:14.354Z,75.90
2023-03-26T22:58:42.305Z,75.11
2023-03-26T23:01:18.048Z,74.53
2023-03-26T23:03:45.547Z,75.33
2023-03-26T23:06:13.525Z,74.41
2023-03-26T23:08:41.216Z,74.49
2023-03-26T23:11:21.956Z,74.83
2023-03-26T23:13:49.752Z,74.87
2023-03-26T23:16:18.102Z,75.17
2023-03-26T23:18:45.805Z,75.16
2023-03-26T23:21:20.853Z,75.04
2023-03-26T23:23:52.189Z,75.96
2023-03-26T23:26:19.543Z,75.37
2023-03-26T23:28:46.999Z,75.33
2023-03-26T23:31:14.525Z,76.07
2023-03-26T23:33:45.896Z,76.38
2023-03-26T23:36:18.387Z,76.84
2023-03-26T23:38:48.249Z,76.62
2023-03-26T23:41:21.505Z,76.10
2023-03-26T23:43:55.859Z,76.32
2023-03-26T23:46:30.267Z,76.24
2023-03-26T23:49:00.118Z,76.31
2023-03-26T23:51:30.188Z,75.44
2023-03-26T23:53:57.822Z,75.21
2023-03-26T23:56:27.097Z,74.91
2023-03-26T23:58:55.301Z,75.05
